sensor_id;sensor_type;location;lat;lon;timestamp;P1;durP1;ratioP1;P2;durP2;ratioP2
4325;SDS011;58429;49.826;10.880;2022-12-08T00:00:50;35;;;21;;
4325;SDS011;58429;49.826;10.880;2022-12-08T00:01:50;35;;;21;;
4325;SDS011;58429;49.826;10.880;2022-12-08T00:02:50;35;;;21;;
4325;SDS011;58429;49.826;10.880;2022-12-08T00:03:50;36;;;21.6;;
4325;SDS011;58429;49.826;10.880;2022-12-08T00:04:50;36;;;21.6;;
4325;SDS011;58429;49.826;10.880;2022-12-08T00:05:50;36;;;21.6;;
4325;SDS011;58429;49.826;10.880;2022-12-08T00:06:50;34.9;;;20.9;;
4325;SDS011;58429;49.826;10.880;2022-12-08T00:07:50;34.9;;;20.9;;
4325;SDS011;58429;49.826;10.880;2022-12-08T00:08:50;34.9;;;20.9;;
4325;SDS011;58429;49.826;10.880;2022-12-08T00:09:50;31.7;;;19.5;;
4325;SDS011;58429;49.826;10.880;2022-12-08T00:10:50;31.7;;;19.5;;
4325;SDS011;58429;49.826;10.880;2022-12-08T00:11:51;31.7;;;19.5;;
4325;SDS011;58429;49.826;10.880;2022-12-08T00:12:50;37.4;;;21.6;;
4325;SDS011;58429;49.826;10.880;2022-12-08T00:13:50;37.4;;;21.6;;
4325;SDS011;58429;49.826;10.880;2022-12-08T00:14:50;37.4;;;21.6;;
4325;SDS011;58429;49.826;10.880;2022-12-08T00:15:50;39.8;;;24.3;;
4325;SDS011;58429;49.826;10.880;2022-12-08T00:16:50;39.8;;;24.3;;
4325;SDS011;58429;49.826;10.880;2022-12-08T00:17:50;39.8;;;24.3;;
4325;SDS011;58429;49.826;10.880;2022-12-08T00:18:50;37.8;;;23;;
4325;SDS011;58429;49.826;10.880;2022-12-08T00:19:50;37.8;;;23;;
4325;SDS011;58429;49.826;10.880;2022-12-08T00:20:53;37.8;;;23;;
4325;SDS011;58429;49.826;10.880;2022-12-08T00:21:50;36.9;;;22.1;;
4325;SDS011;58429;49.826;10.880;2022-12-08T00:22:50;36.9;;;22.1;;
4325;SDS011;58429;49.826;10.880;2022-12-08T00:23:53;36.9;;;22.1;;
4325;SDS011;58429;49.826;10.880;2022-12-08T00:24:50;36.9;;;22.1;;
4325;SDS011;58429;49.826;10.880;2022-12-08T00:25:50;34;;;20.3;;
4325;SDS011;58429;49.826;10.880;2022-12-08T00:26:50;34;;;20.3;;
4325;SDS011;58429;49.826;10.880;2022-12-08T00:27:50;34;;;20.3;;
4325;SDS011;58429;49.826;10.880;2022-12-08T00:28:50;33;;;21;;
4325;SDS011;58429;49.826;10.880;2022-12-08T00:29:50;33;;;21;;
4325;SDS011;58429;49.826;10.880;2022-12-08T00:30:50;33;;;21;;
4325;SDS011;58429;49.826;10.880;2022-12-08T00:31:50;38.8;;;23.1;;
4325;SDS011;58429;49.826;10.880;2022-12-08T00:32:50;38.8;;;23.1;;
4325;SDS011;58429;49.826;10.880;2022-12-08T00:33:50;38.8;;;23.1;;
4325;SDS011;58429;49.826;10.880;2022-12-08T00:34:50;37.6;;;22;;
4325;SDS011;58429;49.826;10.880;2022-12-08T00:35:50;37.6;;;22;;
4325;SDS011;58429;49.826;10.880;2022-12-08T00:36:50;37.6;;;22;;
4325;SDS011;58429;49.826;10.880;2022-12-08T00:37:50;35.1;;;20.1;;
4325;SDS011;58429;49.826;10.880;2022-12-08T00:38:50;35.1;;;20.1;;
4325;SDS011;58429;49.826;10.880;2022-12-08T00:39:50;35.1;;;20.1;;
4325;SDS011;58429;49.826;10.880;2022-12-08T00:40:50;33.2;;;20.9;;
4325;SDS011;58429;49.826;10.880;2022-12-08T00:41:50;33.2;;;20.9;;
4325;SDS011;58429;49.826;10.880;2022-12-08T00:42:50;33.2;;;20.9;;
4325;SDS011;58429;49.826;10.880;2022-12-08T00:43:50;32.1;;;20.9;;
4325;SDS011;58429;49.826;10.880;2022-12-08T00:44:50;32.1;;;20.9;;
4325;SDS011;58429;49.826;10.880;2022-12-08T00:45:50;32.1;;;20.9;;
4325;SDS011;58429;49.826;10.880;2022-12-08T00:46:50;32.3;;;20.1;;
4325;SDS011;58429;49.826;10.880;2022-12-08T00:47:50;32.3;;;20.1;;
4325;SDS011;58429;49.826;10.880;2022-12-08T00:48:50;32.3;;;20.1;;
4325;SDS011;58429;49.826;10.880;2022-12-08T00:49:50;33.5;;;20.2;;
4325;SDS011;58429;49.826;10.880;2022-12-08T00:50:50;33.5;;;20.2;;
4325;SDS011;58429;49.826;10.880;2022-12-08T00:51:50;33.5;;;20.2;;
4325;SDS011;58429;49.826;10.880;2022-12-08T00:52:50;36.7;;;21.6;;
4325;SDS011;58429;49.826;10.880;2022-12-08T00:53:50;36.7;;;21.6;;
4325;SDS011;58429;49.826;10.880;2022-12-08T00:54:50;36.7;;;21.6;;
4325;SDS011;58429;49.826;10.880;2022-12-08T00:55:50;36.7;;;21.3;;
4325;SDS011;58429;49.826;10.880;2022-12-08T00:56:50;36.7;;;21.3;;
4325;SDS011;58429;49.826;10.880;2022-12-08T00:57:50;36.7;;;21.3;;
4325;SDS011;58429;49.826;10.880;2022-12-08T00:58:50;38;;;22.2;;
4325;SDS011;58429;49.826;10.880;2022-12-08T00:59:50;38;;;22.2;;
4325;SDS011;58429;49.826;10.880;2022-12-08T01:00:50;38;;;22.2;;
4325;SDS011;58429;49.826;10.880;2022-12-08T01:01:50;34.6;;;21.2;;
4325;SDS011;58429;49.826;10.880;2022-12-08T01:02:50;34.6;;;21.2;;
4325;SDS011;58429;49.826;10.880;2022-12-08T01:03:50;34.6;;;21.2;;
4325;SDS011;58429;49.826;10.880;2022-12-08T01:04:51;31;;;19.4;;
4325;SDS011;58429;49.826;10.880;2022-12-08T01:05:50;31;;;19.4;;
4325;SDS011;58429;49.826;10.880;2022-12-08T01:06:50;31;;;19.4;;
4325;SDS011;58429;49.826;10.880;2022-12-08T01:07:50;32.7;;;20.1;;
4325;SDS011;58429;49.826;10.880;2022-12-08T01:08:50;32.7;;;20.1;;
4325;SDS011;58429;49.826;10.880;2022-12-08T01:09:50;32.7;;;20.1;;
4325;SDS011;58429;49.826;10.880;2022-12-08T01:10:50;39.5;;;21.5;;
4325;SDS011;58429;49.826;10.880;2022-12-08T01:11:50;39.5;;;21.5;;
4325;SDS011;58429;49.826;10.880;2022-12-08T01:12:50;39.5;;;21.5;;
4325;SDS011;58429;49.826;10.880;2022-12-08T01:13:50;43.4;;;23.9;;
4325;SDS011;58429;49.826;10.880;2022-12-08T01:14:50;43.4;;;23.9;;
4325;SDS011;58429;49.826;10.880;2022-12-08T01:15:50;43.4;;;23.9;;
4325;SDS011;58429;49.826;10.880;2022-12-08T01:16:50;43.6;;;23.3;;
4325;SDS011;58429;49.826;10.880;2022-12-08T01:17:50;43.6;;;23.3;;
4325;SDS011;58429;49.826;10.880;2022-12-08T01:18:50;43.6;;;23.3;;
4325;SDS011;58429;49.826;10.880;2022-12-08T01:19:50;44;;;23.2;;
4325;SDS011;58429;49.826;10.880;2022-12-08T01:20:50;44;;;23.2;;
4325;SDS011;58429;49.826;10.880;2022-12-08T01:21:50;44;;;23.2;;
4325;SDS011;58429;49.826;10.880;2022-12-08T01:22:50;36.7;;;21.3;;
4325;SDS011;58429;49.826;10.880;2022-12-08T01:23:50;36.7;;;21.3;;
4325;SDS011;58429;49.826;10.880;2022-12-08T01:24:50;36.7;;;21.3;;
4325;SDS011;58429;49.826;10.880;2022-12-08T01:25:50;34;;;21.1;;
4325;SDS011;58429;49.826;10.880;2022-12-08T01:26:50;34;;;21.1;;
4325;SDS011;58429;49.826;10.880;2022-12-08T01:27:51;34;;;21.1;;
4325;SDS011;58429;49.826;10.880;2022-12-08T01:28:50;32.1;;;20.3;;
4325;SDS011;58429;49.826;10.880;2022-12-08T01:29:50;32.1;;;20.3;;
4325;SDS011;58429;49.826;10.880;2022-12-08T01:30:50;32.1;;;20.3;;
4325;SDS011;58429;49.826;10.880;2022-12-08T01:31:50;35.2;;;21.8;;
4325;SDS011;58429;49.826;10.880;2022-12-08T01:32:50;35.2;;;21.8;;
4325;SDS011;58429;49.826;10.880;2022-12-08T01:33:50;35.2;;;21.8;;
4325;SDS011;58429;49.826;10.880;2022-12-08T01:34:50;31.9;;;19.9;;
4325;SDS011;58429;49.826;10.880;2022-12-08T01:35:51;31.9;;;19.9;;
4325;SDS011;58429;49.826;10.880;2022-12-08T01:36:50;31.9;;;19.9;;
4325;SDS011;58429;49.826;10.880;2022-12-08T01:37:50;34.4;;;19.4;;
4325;SDS011;58429;49.826;10.880;2022-12-08T01:38:51;34.4;;;19.4;;
4325;SDS011;58429;49.826;10.880;2022-12-08T01:39:50;34.4;;;19.4;;
4325;SDS011;58429;49.826;10.880;2022-12-08T01:40:50;31.2;;;19.4;;
4325;SDS011;58429;49.826;10.880;2022-12-08T01:41:50;31.2;;;19.4;;
4325;SDS011;58429;49.826;10.880;2022-12-08T01:42:50;31.2;;;19.4;;
4325;SDS011;58429;49.826;10.880;2022-12-08T01:43:55;34;;;21.5;;
4325;SDS011;58429;49.826;10.880;2022-12-08T01:44:52;34;;;21.5;;
4325;SDS011;58429;49.826;10.880;2022-12-08T01:45:50;34;;;21.5;;
4325;SDS011;58429;49.826;10.880;2022-12-08T01:46:50;31.6;;;19.3;;
4325;SDS011;58429;49.826;10.880;2022-12-08T01:47:51;31.6;;;19.3;;
4325;SDS011;58429;49.826;10.880;2022-12-08T01:48:51;31.6;;;19.3;;
4325;SDS011;58429;49.826;10.880;2022-12-08T01:49:50;29;;;18;;
4325;SDS011;58429;49.826;10.880;2022-12-08T01:50:51;29;;;18;;
4325;SDS011;58429;49.826;10.880;2022-12-08T01:51:54;29;;;18;;
4325;SDS011;58429;49.826;10.880;2022-12-08T01:52:51;31.9;;;18.4;;
4325;SDS011;58429;49.826;10.880;2022-12-08T01:53:50;31.9;;;18.4;;
4325;SDS011;58429;49.826;10.880;2022-12-08T01:54:51;31.9;;;18.4;;
4325;SDS011;58429;49.826;10.880;2022-12-08T01:55:51;28.4;;;18.4;;
4325;SDS011;58429;49.826;10.880;2022-12-08T01:56:51;28.4;;;18.4;;
4325;SDS011;58429;49.826;10.880;2022-12-08T01:57:51;28.4;;;18.4;;
4325;SDS011;58429;49.826;10.880;2022-12-08T01:58:50;31.6;;;20.3;;
4325;SDS011;58429;49.826;10.880;2022-12-08T01:59:51;31.6;;;20.3;;
4325;SDS011;58429;49.826;10.880;2022-12-08T02:00:50;31.6;;;20.3;;
4325;SDS011;58429;49.826;10.880;2022-12-08T02:01:50;27.6;;;18.7;;
4325;SDS011;58429;49.826;10.880;2022-12-08T02:02:52;27.6;;;18.7;;
4325;SDS011;58429;49.826;10.880;2022-12-08T02:03:51;27.6;;;18.7;;
4325;SDS011;58429;49.826;10.880;2022-12-08T02:04:50;29.6;;;18.7;;
4325;SDS011;58429;49.826;10.880;2022-12-08T02:05:50;29.6;;;18.7;;
4325;SDS011;58429;49.826;10.880;2022-12-08T02:06:50;29.6;;;18.7;;
4325;SDS011;58429;49.826;10.880;2022-12-08T02:07:50;29.5;;;18.7;;
4325;SDS011;58429;49.826;10.880;2022-12-08T02:08:50;29.5;;;18.7;;
4325;SDS011;58429;49.826;10.880;2022-12-08T02:09:50;29.5;;;18.7;;
4325;SDS011;58429;49.826;10.880;2022-12-08T02:10:50;29.5;;;18.7;;
4325;SDS011;58429;49.826;10.880;2022-12-08T02:11:50;30.2;;;19.3;;
4325;SDS011;58429;49.826;10.880;2022-12-08T02:12:50;30.2;;;19.3;;
4325;SDS011;58429;49.826;10.880;2022-12-08T02:13:50;30.2;;;19.3;;
4325;SDS011;58429;49.826;10.880;2022-12-08T02:14:50;32.8;;;20.3;;
4325;SDS011;58429;49.826;10.880;2022-12-08T02:15:53;32.8;;;20.3;;
4325;SDS011;58429;49.826;10.880;2022-12-08T02:16:51;32.8;;;20.3;;
4325;SDS011;58429;49.826;10.880;2022-12-08T02:17:54;31.3;;;19.7;;
4325;SDS011;58429;49.826;10.880;2022-12-08T02:18:55;31.3;;;19.7;;
4325;SDS011;58429;49.826;10.880;2022-12-08T02:19:55;31.3;;;19.7;;
4325;SDS011;58429;49.826;10.880;2022-12-08T02:20:52;29.9;;;19.9;;
4325;SDS011;58429;49.826;10.880;2022-12-08T02:21:51;29.9;;;19.9;;
4325;SDS011;58429;49.826;10.880;2022-12-08T02:22:52;29.9;;;19.9;;
4325;SDS011;58429;49.826;10.880;2022-12-08T02:23:52;33;;;20.1;;
4325;SDS011;58429;49.826;10.880;2022-12-08T02:24:52;33;;;20.1;;
4325;SDS011;58429;49.826;10.880;2022-12-08T02:25:56;33;;;20.1;;
4325;SDS011;58429;49.826;10.880;2022-12-08T02:26:56;28.2;;;18.2;;
4325;SDS011;58429;49.826;10.880;2022-12-08T02:27:52;28.2;;;18.2;;
4325;SDS011;58429;49.826;10.880;2022-12-08T02:28:56;28.2;;;18.2;;
4325;SDS011;58429;49.826;10.880;2022-12-08T02:30:01;27.2;;;17.5;;
4325;SDS011;58429;49.826;10.880;2022-12-08T02:30:52;27.2;;;17.5;;
4325;SDS011;58429;49.826;10.880;2022-12-08T02:31:53;27.2;;;17.5;;
4325;SDS011;58429;49.826;10.880;2022-12-08T02:33:00;30.8;;;18.4;;
4325;SDS011;58429;49.826;10.880;2022-12-08T02:34:03;30.8;;;18.4;;
4325;SDS011;58429;49.826;10.880;2022-12-08T02:34:51;30.8;;;18.4;;
4325;SDS011;58429;49.826;10.880;2022-12-08T02:35:53;28.1;;;18.1;;
4325;SDS011;58429;49.826;10.880;2022-12-08T02:36:52;28.1;;;18.1;;
4325;SDS011;58429;49.826;10.880;2022-12-08T02:37:54;28.1;;;18.1;;
4325;SDS011;58429;49.826;10.880;2022-12-08T02:38:52;29.8;;;18.4;;
4325;SDS011;58429;49.826;10.880;2022-12-08T02:39:51;29.8;;;18.4;;
4325;SDS011;58429;49.826;10.880;2022-12-08T02:40:52;29.8;;;18.4;;
4325;SDS011;58429;49.826;10.880;2022-12-08T02:41:51;28.9;;;18.2;;
4325;SDS011;58429;49.826;10.880;2022-12-08T02:42:51;28.9;;;18.2;;
4325;SDS011;58429;49.826;10.880;2022-12-08T02:43:52;28.9;;;18.2;;
4325;SDS011;58429;49.826;10.880;2022-12-08T02:44:51;30.5;;;19;;
4325;SDS011;58429;49.826;10.880;2022-12-08T02:45:51;30.5;;;19;;
4325;SDS011;58429;49.826;10.880;2022-12-08T02:46:51;30.5;;;19;;
4325;SDS011;58429;49.826;10.880;2022-12-08T02:47:50;27.8;;;18;;
4325;SDS011;58429;49.826;10.880;2022-12-08T02:48:50;27.8;;;18;;
4325;SDS011;58429;49.826;10.880;2022-12-08T02:49:50;27.8;;;18;;
4325;SDS011;58429;49.826;10.880;2022-12-08T02:50:50;27.7;;;18;;
4325;SDS011;58429;49.826;10.880;2022-12-08T02:51:50;27.7;;;18;;
4325;SDS011;58429;49.826;10.880;2022-12-08T02:52:50;27.7;;;18;;
4325;SDS011;58429;49.826;10.880;2022-12-08T02:53:50;28.9;;;18.2;;
4325;SDS011;58429;49.826;10.880;2022-12-08T02:54:51;28.9;;;18.2;;
4325;SDS011;58429;49.826;10.880;2022-12-08T02:55:54;28.9;;;18.2;;
4325;SDS011;58429;49.826;10.880;2022-12-08T02:56:56;31.3;;;19.3;;
4325;SDS011;58429;49.826;10.880;2022-12-08T02:57:53;31.3;;;19.3;;
4325;SDS011;58429;49.826;10.880;2022-12-08T02:58:58;31.3;;;19.3;;
4325;SDS011;58429;49.826;10.880;2022-12-08T02:59:55;34;;;22;;
4325;SDS011;58429;49.826;10.880;2022-12-08T03:00:56;34;;;22;;
4325;SDS011;58429;49.826;10.880;2022-12-08T03:01:55;34;;;22;;
4325;SDS011;58429;49.826;10.880;2022-12-08T03:02:55;33.4;;;19.8;;
4325;SDS011;58429;49.826;10.880;2022-12-08T03:03:52;33.4;;;19.8;;
4325;SDS011;58429;49.826;10.880;2022-12-08T03:04:52;33.4;;;19.8;;
4325;SDS011;58429;49.826;10.880;2022-12-08T03:05:54;33;;;20;;
4325;SDS011;58429;49.826;10.880;2022-12-08T03:06:51;33;;;20;;
4325;SDS011;58429;49.826;10.880;2022-12-08T03:07:52;33;;;20;;
4325;SDS011;58429;49.826;10.880;2022-12-08T03:08:53;31.3;;;20.3;;
4325;SDS011;58429;49.826;10.880;2022-12-08T03:09:53;31.3;;;20.3;;
4325;SDS011;58429;49.826;10.880;2022-12-08T03:10:51;31.3;;;20.3;;
4325;SDS011;58429;49.826;10.880;2022-12-08T03:11:51;30.4;;;19.6;;
4325;SDS011;58429;49.826;10.880;2022-12-08T03:12:51;30.4;;;19.6;;
4325;SDS011;58429;49.826;10.880;2022-12-08T03:13:51;30.4;;;19.6;;
4325;SDS011;58429;49.826;10.880;2022-12-08T03:14:51;37;;;22.7;;
4325;SDS011;58429;49.826;10.880;2022-12-08T03:15:50;37;;;22.7;;
4325;SDS011;58429;49.826;10.880;2022-12-08T03:16:51;37;;;22.7;;
4325;SDS011;58429;49.826;10.880;2022-12-08T03:17:51;43.3;;;27.8;;
4325;SDS011;58429;49.826;10.880;2022-12-08T03:18:51;43.3;;;27.8;;
4325;SDS011;58429;49.826;10.880;2022-12-08T03:19:50;43.3;;;27.8;;
4325;SDS011;58429;49.826;10.880;2022-12-08T03:20:50;37.5;;;21.7;;
4325;SDS011;58429;49.826;10.880;2022-12-08T03:21:51;37.5;;;21.7;;
4325;SDS011;58429;49.826;10.880;2022-12-08T03:22:51;37.5;;;21.7;;
4325;SDS011;58429;49.826;10.880;2022-12-08T03:23:51;36.6;;;22.8;;
4325;SDS011;58429;49.826;10.880;2022-12-08T03:24:50;36.6;;;22.8;;
4325;SDS011;58429;49.826;10.880;2022-12-08T03:25:52;36.6;;;22.8;;
4325;SDS011;58429;49.826;10.880;2022-12-08T03:26:52;42.3;;;26.1;;
4325;SDS011;58429;49.826;10.880;2022-12-08T03:27:50;42.3;;;26.1;;
4325;SDS011;58429;49.826;10.880;2022-12-08T03:28:50;42.3;;;26.1;;
4325;SDS011;58429;49.826;10.880;2022-12-08T03:29:51;38.2;;;23.2;;
4325;SDS011;58429;49.826;10.880;2022-12-08T03:30:51;38.2;;;23.2;;
4325;SDS011;58429;49.826;10.880;2022-12-08T03:31:52;38.2;;;23.2;;
4325;SDS011;58429;49.826;10.880;2022-12-08T03:32:51;32.6;;;20.1;;
4325;SDS011;58429;49.826;10.880;2022-12-08T03:33:50;32.6;;;20.1;;
4325;SDS011;58429;49.826;10.880;2022-12-08T03:34:50;32.6;;;20.1;;
4325;SDS011;58429;49.826;10.880;2022-12-08T03:35:50;36.6;;;23.3;;
4325;SDS011;58429;49.826;10.880;2022-12-08T03:36:50;36.6;;;23.3;;
4325;SDS011;58429;49.826;10.880;2022-12-08T03:37:50;36.6;;;23.3;;
4325;SDS011;58429;49.826;10.880;2022-12-08T03:38:51;36.4;;;22;;
4325;SDS011;58429;49.826;10.880;2022-12-08T03:39:50;36.4;;;22;;
4325;SDS011;58429;49.826;10.880;2022-12-08T03:40:50;36.4;;;22;;
4325;SDS011;58429;49.826;10.880;2022-12-08T03:41:50;35;;;22.1;;
4325;SDS011;58429;49.826;10.880;2022-12-08T03:42:50;35;;;22.1;;
4325;SDS011;58429;49.826;10.880;2022-12-08T03:43:51;35;;;22.1;;
4325;SDS011;58429;49.826;10.880;2022-12-08T03:44:50;33.9;;;19.5;;
4325;SDS011;58429;49.826;10.880;2022-12-08T03:45:50;33.9;;;19.5;;
4325;SDS011;58429;49.826;10.880;2022-12-08T03:46:50;33.9;;;19.5;;
4325;SDS011;58429;49.826;10.880;2022-12-08T03:47:50;32.2;;;20.4;;
4325;SDS011;58429;49.826;10.880;2022-12-08T03:48:50;32.2;;;20.4;;
4325;SDS011;58429;49.826;10.880;2022-12-08T03:49:50;32.2;;;20.4;;
4325;SDS011;58429;49.826;10.880;2022-12-08T03:50:50;33.4;;;20.7;;
4325;SDS011;58429;49.826;10.880;2022-12-08T03:51:50;33.4;;;20.7;;
4325;SDS011;58429;49.826;10.880;2022-12-08T03:52:50;33.4;;;20.7;;
4325;SDS011;58429;49.826;10.880;2022-12-08T03:53:50;33.4;;;20.7;;
4325;SDS011;58429;49.826;10.880;2022-12-08T03:54:50;33.9;;;20.4;;
4325;SDS011;58429;49.826;10.880;2022-12-08T03:55:51;33.9;;;20.4;;
4325;SDS011;58429;49.826;10.880;2022-12-08T03:56:50;33.9;;;20.4;;
4325;SDS011;58429;49.826;10.880;2022-12-08T03:57:50;33.6;;;20.1;;
4325;SDS011;58429;49.826;10.880;2022-12-08T03:58:50;33.6;;;20.1;;
4325;SDS011;58429;49.826;10.880;2022-12-08T03:59:50;33.6;;;20.1;;
4325;SDS011;58429;49.826;10.880;2022-12-08T04:00:50;33.3;;;19.8;;
4325;SDS011;58429;49.826;10.880;2022-12-08T04:01:50;33.3;;;19.8;;
4325;SDS011;58429;49.826;10.880;2022-12-08T04:02:50;33.3;;;19.8;;
4325;SDS011;58429;49.826;10.880;2022-12-08T04:03:51;33.3;;;20;;
4325;SDS011;58429;49.826;10.880;2022-12-08T04:04:50;33.3;;;20;;
4325;SDS011;58429;49.826;10.880;2022-12-08T04:05:50;33.3;;;20;;
4325;SDS011;58429;49.826;10.880;2022-12-08T04:06:50;32.3;;;19.2;;
4325;SDS011;58429;49.826;10.880;2022-12-08T04:07:50;32.3;;;19.2;;
4325;SDS011;58429;49.826;10.880;2022-12-08T04:08:50;32.3;;;19.2;;
4325;SDS011;58429;49.826;10.880;2022-12-08T04:09:50;32.4;;;18.8;;
4325;SDS011;58429;49.826;10.880;2022-12-08T04:10:50;32.4;;;18.8;;
4325;SDS011;58429;49.826;10.880;2022-12-08T04:11:50;32.4;;;18.8;;
4325;SDS011;58429;49.826;10.880;2022-12-08T04:12:50;33;;;19.5;;
4325;SDS011;58429;49.826;10.880;2022-12-08T04:13:50;33;;;19.5;;
4325;SDS011;58429;49.826;10.880;2022-12-08T04:14:50;33;;;19.5;;
4325;SDS011;58429;49.826;10.880;2022-12-08T04:15:50;32.6;;;20.4;;
4325;SDS011;58429;49.826;10.880;2022-12-08T04:16:50;32.6;;;20.4;;
4325;SDS011;58429;49.826;10.880;2022-12-08T04:17:50;32.6;;;20.4;;
4325;SDS011;58429;49.826;10.880;2022-12-08T04:18:50;34.1;;;21;;
4325;SDS011;58429;49.826;10.880;2022-12-08T04:19:50;34.1;;;21;;
4325;SDS011;58429;49.826;10.880;2022-12-08T04:20:50;34.1;;;21;;
4325;SDS011;58429;49.826;10.880;2022-12-08T04:21:50;33.9;;;20.4;;
4325;SDS011;58429;49.826;10.880;2022-12-08T04:22:50;33.9;;;20.4;;
4325;SDS011;58429;49.826;10.880;2022-12-08T04:23:50;33.9;;;20.4;;
4325;SDS011;58429;49.826;10.880;2022-12-08T04:24:50;30.5;;;19.1;;
4325;SDS011;58429;49.826;10.880;2022-12-08T04:25:50;30.5;;;19.1;;
4325;SDS011;58429;49.826;10.880;2022-12-08T04:26:50;30.5;;;19.1;;
4325;SDS011;58429;49.826;10.880;2022-12-08T04:27:50;36;;;21.1;;
4325;SDS011;58429;49.826;10.880;2022-12-08T04:28:50;36;;;21.1;;
4325;SDS011;58429;49.826;10.880;2022-12-08T04:29:50;36;;;21.1;;
4325;SDS011;58429;49.826;10.880;2022-12-08T04:30:50;38.8;;;23.1;;
4325;SDS011;58429;49.826;10.880;2022-12-08T04:31:50;38.8;;;23.1;;
4325;SDS011;58429;49.826;10.880;2022-12-08T04:32:50;38.8;;;23.1;;
4325;SDS011;58429;49.826;10.880;2022-12-08T04:33:50;37.1;;;23.2;;
4325;SDS011;58429;49.826;10.880;2022-12-08T04:34:50;37.1;;;23.2;;
4325;SDS011;58429;49.826;10.880;2022-12-08T04:35:50;37.1;;;23.2;;
4325;SDS011;58429;49.826;10.880;2022-12-08T04:36:50;34.4;;;21.3;;
4325;SDS011;58429;49.826;10.880;2022-12-08T04:37:50;34.4;;;21.3;;
4325;SDS011;58429;49.826;10.880;2022-12-08T04:38:50;34.4;;;21.3;;
4325;SDS011;58429;49.826;10.880;2022-12-08T04:39:50;32.7;;;20.3;;
4325;SDS011;58429;49.826;10.880;2022-12-08T04:40:50;32.7;;;20.3;;
4325;SDS011;58429;49.826;10.880;2022-12-08T04:41:50;32.7;;;20.3;;
4325;SDS011;58429;49.826;10.880;2022-12-08T04:42:50;33.8;;;20.3;;
4325;SDS011;58429;49.826;10.880;2022-12-08T04:43:50;33.8;;;20.3;;
4325;SDS011;58429;49.826;10.880;2022-12-08T04:44:50;33.8;;;20.3;;
4325;SDS011;58429;49.826;10.880;2022-12-08T04:45:50;33.3;;;19.7;;
4325;SDS011;58429;49.826;10.880;2022-12-08T04:46:50;33.3;;;19.7;;
4325;SDS011;58429;49.826;10.880;2022-12-08T04:47:50;33.3;;;19.7;;
4325;SDS011;58429;49.826;10.880;2022-12-08T04:48:51;35.3;;;20.9;;
4325;SDS011;58429;49.826;10.880;2022-12-08T04:49:50;35.3;;;20.9;;
4325;SDS011;58429;49.826;10.880;2022-12-08T04:50:51;35.3;;;20.9;;
4325;SDS011;58429;49.826;10.880;2022-12-08T04:51:50;34.7;;;21.4;;
4325;SDS011;58429;49.826;10.880;2022-12-08T04:52:51;34.7;;;21.4;;
4325;SDS011;58429;49.826;10.880;2022-12-08T04:53:51;34.7;;;21.4;;
4325;SDS011;58429;49.826;10.880;2022-12-08T04:54:50;33.4;;;20.3;;
4325;SDS011;58429;49.826;10.880;2022-12-08T04:55:50;33.4;;;20.3;;
4325;SDS011;58429;49.826;10.880;2022-12-08T04:56:50;33.4;;;20.3;;
4325;SDS011;58429;49.826;10.880;2022-12-08T04:57:50;34.4;;;19.4;;
4325;SDS011;58429;49.826;10.880;2022-12-08T04:58:50;34.4;;;19.4;;
4325;SDS011;58429;49.826;10.880;2022-12-08T04:59:50;34.4;;;19.4;;
4325;SDS011;58429;49.826;10.880;2022-12-08T05:00:50;31.3;;;19.4;;
4325;SDS011;58429;49.826;10.880;2022-12-08T05:01:51;31.3;;;19.4;;
4325;SDS011;58429;49.826;10.880;2022-12-08T05:02:51;31.3;;;19.4;;
4325;SDS011;58429;49.826;10.880;2022-12-08T05:03:50;30.8;;;19.4;;
4325;SDS011;58429;49.826;10.880;2022-12-08T05:04:50;30.8;;;19.4;;
4325;SDS011;58429;49.826;10.880;2022-12-08T05:05:50;30.8;;;19.4;;
4325;SDS011;58429;49.826;10.880;2022-12-08T05:06:50;30.3;;;20.2;;
4325;SDS011;58429;49.826;10.880;2022-12-08T05:07:51;30.3;;;20.2;;
4325;SDS011;58429;49.826;10.880;2022-12-08T05:08:50;30.3;;;20.2;;
4325;SDS011;58429;49.826;10.880;2022-12-08T05:09:51;30.1;;;18.1;;
4325;SDS011;58429;49.826;10.880;2022-12-08T05:10:50;30.1;;;18.1;;
4325;SDS011;58429;49.826;10.880;2022-12-08T05:11:50;30.1;;;18.1;;
4325;SDS011;58429;49.826;10.880;2022-12-08T05:12:50;33.8;;;20.1;;
4325;SDS011;58429;49.826;10.880;2022-12-08T05:13:50;33.8;;;20.1;;
4325;SDS011;58429;49.826;10.880;2022-12-08T05:14:50;33.8;;;20.1;;
4325;SDS011;58429;49.826;10.880;2022-12-08T05:15:51;34.7;;;20.6;;
4325;SDS011;58429;49.826;10.880;2022-12-08T05:16:50;34.7;;;20.6;;
4325;SDS011;58429;49.826;10.880;2022-12-08T05:17:50;34.7;;;20.6;;
4325;SDS011;58429;49.826;10.880;2022-12-08T05:18:50;32.9;;;20;;
4325;SDS011;58429;49.826;10.880;2022-12-08T05:19:50;32.9;;;20;;
4325;SDS011;58429;49.826;10.880;2022-12-08T05:20:51;32.9;;;20;;
4325;SDS011;58429;49.826;10.880;2022-12-08T05:21:51;35.8;;;20.4;;
4325;SDS011;58429;49.826;10.880;2022-12-08T05:22:50;35.8;;;20.4;;
4325;SDS011;58429;49.826;10.880;2022-12-08T05:23:50;35.8;;;20.4;;
4325;SDS011;58429;49.826;10.880;2022-12-08T05:24:50;36.9;;;19.8;;
4325;SDS011;58429;49.826;10.880;2022-12-08T05:25:50;36.9;;;19.8;;
4325;SDS011;58429;49.826;10.880;2022-12-08T05:26:50;36.9;;;19.8;;
4325;SDS011;58429;49.826;10.880;2022-12-08T05:27:50;33.9;;;21.4;;
4325;SDS011;58429;49.826;10.880;2022-12-08T05:28:50;33.9;;;21.4;;
4325;SDS011;58429;49.826;10.880;2022-12-08T05:29:51;33.9;;;21.4;;
4325;SDS011;58429;49.826;10.880;2022-12-08T05:30:50;35.9;;;20.4;;
4325;SDS011;58429;49.826;10.880;2022-12-08T05:31:50;35.9;;;20.4;;
4325;SDS011;58429;49.826;10.880;2022-12-08T05:32:50;35.9;;;20.4;;
4325;SDS011;58429;49.826;10.880;2022-12-08T05:33:51;32.5;;;19.5;;
4325;SDS011;58429;49.826;10.880;2022-12-08T05:34:51;32.5;;;19.5;;
4325;SDS011;58429;49.826;10.880;2022-12-08T05:35:50;32.5;;;19.5;;
4325;SDS011;58429;49.826;10.880;2022-12-08T05:36:50;37.5;;;21.1;;
4325;SDS011;58429;49.826;10.880;2022-12-08T05:37:50;37.5;;;21.1;;
4325;SDS011;58429;49.826;10.880;2022-12-08T05:38:50;37.5;;;21.1;;
4325;SDS011;58429;49.826;10.880;2022-12-08T05:39:50;37.5;;;21.1;;
4325;SDS011;58429;49.826;10.880;2022-12-08T05:40:51;39.9;;;21.3;;
4325;SDS011;58429;49.826;10.880;2022-12-08T05:41:51;39.9;;;21.3;;
4325;SDS011;58429;49.826;10.880;2022-12-08T05:42:50;39.9;;;21.3;;
4325;SDS011;58429;49.826;10.880;2022-12-08T05:43:50;36.8;;;22.8;;
4325;SDS011;58429;49.826;10.880;2022-12-08T05:44:50;36.8;;;22.8;;
4325;SDS011;58429;49.826;10.880;2022-12-08T05:45:50;36.8;;;22.8;;
4325;SDS011;58429;49.826;10.880;2022-12-08T05:46:50;33.8;;;20.8;;
4325;SDS011;58429;49.826;10.880;2022-12-08T05:47:51;33.8;;;20.8;;
4325;SDS011;58429;49.826;10.880;2022-12-08T05:48:51;33.8;;;20.8;;
4325;SDS011;58429;49.826;10.880;2022-12-08T05:49:50;32.6;;;20.8;;
4325;SDS011;58429;49.826;10.880;2022-12-08T05:50:51;32.6;;;20.8;;
4325;SDS011;58429;49.826;10.880;2022-12-08T05:51:50;32.6;;;20.8;;
4325;SDS011;58429;49.826;10.880;2022-12-08T05:52:51;33.3;;;18.8;;
4325;SDS011;58429;49.826;10.880;2022-12-08T05:53:51;33.3;;;18.8;;
4325;SDS011;58429;49.826;10.880;2022-12-08T05:54:50;33.3;;;18.8;;
4325;SDS011;58429;49.826;10.880;2022-12-08T05:55:50;37.2;;;21.8;;
4325;SDS011;58429;49.826;10.880;2022-12-08T05:56:51;37.2;;;21.8;;
4325;SDS011;58429;49.826;10.880;2022-12-08T05:57:50;37.2;;;21.8;;
4325;SDS011;58429;49.826;10.880;2022-12-08T05:58:51;36.3;;;20.9;;
4325;SDS011;58429;49.826;10.880;2022-12-08T05:59:50;36.3;;;20.9;;
4325;SDS011;58429;49.826;10.880;2022-12-08T06:00:50;36.3;;;20.9;;
4325;SDS011;58429;49.826;10.880;2022-12-08T06:01:50;35.9;;;21.9;;
4325;SDS011;58429;49.826;10.880;2022-12-08T06:02:50;35.9;;;21.9;;
4325;SDS011;58429;49.826;10.880;2022-12-08T06:03:50;35.9;;;21.9;;
4325;SDS011;58429;49.826;10.880;2022-12-08T06:04:50;36.6;;;21.4;;